createdAt,value
2019-04-28T00:00:48.451Z,15.20
2019-04-28T00:03:20.785Z,13.53
2019-04-28T00:05:51.684Z,14.37
2019-04-28T00:08:22.275Z,14.23
2019-04-28T00:10:53.393Z,15.03
2019-04-28T00:13:24.285Z,15.07
2019-04-28T00:15:55.003Z,14.63
2019-04-28T00:18:25.789Z,15.87
2019-04-28T00:21:07.347Z,15.57
2019-04-28T00:23:51.708Z,15.57
2019-04-28T00:26:23.871Z,15.70
2019-04-28T00:28:54.578Z,15.60
2019-04-28T00:31:25.317Z,15.27
2019-04-28T00:33:55.941Z,16.53
2019-04-28T00:36:26.596Z,16.83
2019-04-28T00:38:57.316Z,15.50
2019-04-28T00:41:28.072Z,16.83
2019-04-28T00:43:58.806Z,16.40
2019-04-28T00:46:31.140Z,15.70
2019-04-28T00:49:02.218Z,16.83
2019-04-28T00:51:32.956Z,15.90
2019-04-28T00:54:03.576Z,16.13
2019-04-28T00:56:34.292Z,16.77
2019-04-28T00:59:04.896Z,15.80
2019-04-28T01:01:40.734Z,16.10
2019-04-28T01:04:12.350Z,14.97
2019-04-28T01:06:43.134Z,13.40
2019-04-28T01:09:13.895Z,13.77
2019-04-28T01:11:44.651Z,14.57
2019-04-28T01:14:15.382Z,13.63
2019-04-28T01:16:53.779Z,12.97
2019-04-28T01:19:30.136Z,13.67
2019-04-28T01:22:13.663Z,14.07
2019-04-28T01:24:44.352Z,15.03
2019-04-28T01:27:20.379Z,15.63
2019-04-28T01:29:52.877Z,15.10
2019-04-28T01:32:40.518Z,14.13
2019-04-28T01:35:11.322Z,15.70
2019-04-28T01:37:41.936Z,15.13
2019-04-28T01:40:12.779Z,14.23
2019-04-28T01:42:43.450Z,13.97
2019-04-28T01:45:14.648Z,13.93
2019-04-28T01:47:45.320Z,13.20
2019-04-28T01:50:16.161Z,13.57
2019-04-28T01:52:46.890Z,13.83
2019-04-28T01:55:17.594Z,13.67
2019-04-28T01:57:49.800Z,12.27
2019-04-28T02:00:25.265Z,12.93
2019-04-28T02:02:55.063Z,11.40
2019-04-28T02:05:25.742Z,11.10
2019-04-28T02:07:56.412Z,10.50
2019-04-28T02:10:27.033Z,10.43
2019-04-28T02:12:57.744Z,9.50
2019-04-28T02:15:30.198Z,8.40
2019-04-28T02:18:01.078Z,8.17
2019-04-28T02:20:31.762Z,8.40
2019-04-28T02:23:04.008Z,8.50
2019-04-28T02:25:34.807Z,8.50
2019-04-28T02:28:05.418Z,7.97
2019-04-28T02:30:45.372Z,8.40
2019-04-28T02:33:11.141Z,7.93
2019-04-28T02:35:42.339Z,8.50
2019-04-28T02:38:13.126Z,7.93
2019-04-28T02:40:43.905Z,8.00
2019-04-28T02:43:14.664Z,7.90
2019-04-28T02:45:46.236Z,7.90
2019-04-28T02:48:21.054Z,8.47
2019-04-28T02:50:52.807Z,9.40
2019-04-28T02:53:25.020Z,8.57
2019-04-28T02:55:55.679Z,8.63
2019-04-28T02:58:26.281Z,7.73
2019-04-28T03:01:06.209Z,7.97
2019-04-28T03:03:30.833Z,7.87
2019-04-28T03:06:01.861Z,7.73
2019-04-28T03:08:32.505Z,7.70
2019-04-28T03:11:03.096Z,7.93
2019-04-28T03:13:33.866Z,7.63
2019-04-28T03:16:04.754Z,8.17
2019-04-28T03:18:35.350Z,7.50
2019-04-28T03:21:06.091Z,7.30
2019-04-28T03:23:36.654Z,7.57
2019-04-28T03:26:17.738Z,7.83
2019-04-28T03:28:51.376Z,8.07
2019-04-28T03:32:04.070Z,8.43
2019-04-28T03:34:12.912Z,7.60
2019-04-28T03:36:44.177Z,8.00
2019-04-28T03:39:14.688Z,8.03
2019-04-28T03:41:45.412Z,8.47
2019-04-28T03:44:16.867Z,8.57
2019-04-28T03:46:51.220Z,7.90
2019-04-28T03:49:32.156Z,7.07
2019-04-28T03:52:06.707Z,7.87
2019-04-28T03:54:37.404Z,7.83
2019-04-28T03:57:11.123Z,7.90
2019-04-28T03:59:43.560Z,7.90
2019-04-28T04:02:13.698Z,7.63
2019-04-28T04:04:46.173Z,7.73
2019-04-28T04:07:17.222Z,7.47
2019-04-28T04:10:01.567Z,7.40
2019-04-28T04:12:46.226Z,8.13
2019-04-28T04:15:25.460Z,8.50
2019-04-28T04:18:06.908Z,8.20
2019-04-28T04:20:37.627Z,8.37
2019-04-28T04:23:11.076Z,7.87
2019-04-28T04:25:41.642Z,7.93
2019-04-28T04:28:12.566Z,8.93
2019-04-28T04:30:43.365Z,9.63
2019-04-28T04:33:14.063Z,9.07
2019-04-28T04:35:44.580Z,9.50
2019-04-28T04:38:15.339Z,9.07
2019-04-28T04:40:46.057Z,9.73
2019-04-28T04:43:16.739Z,10.27
2019-04-28T04:45:50.125Z,10.70
2019-04-28T04:48:21.569Z,10.03
2019-04-28T04:50:52.522Z,10.30
2019-04-28T04:53:23.473Z,9.90
2019-04-28T04:55:54.367Z,9.03
2019-04-28T04:58:24.984Z,10.40
2019-04-28T05:01:04.149Z,10.20
2019-04-28T05:03:39.775Z,9.97
2019-04-28T05:06:29.974Z,10.40
2019-04-28T05:09:00.588Z,10.30
2019-04-28T05:11:32.810Z,10.40
2019-04-28T05:14:07.551Z,10.63
2019-04-28T05:16:39.844Z,11.67
2019-04-28T05:19:10.773Z,11.00
2019-04-28T05:21:41.426Z,9.57
2019-04-28T05:24:25.939Z,11.13
2019-04-28T05:26:56.542Z,10.70
2019-04-28T05:29:28.128Z,10.87
2019-04-28T05:32:02.285Z,10.67
2019-04-28T05:34:31.189Z,11.00
2019-04-28T05:37:01.887Z,10.67
2019-04-28T05:39:32.437Z,11.03
2019-04-28T05:42:03.008Z,11.43
2019-04-28T05:44:33.812Z,11.47
2019-04-28T05:47:04.399Z,11.93
2019-04-28T05:49:36.687Z,12.03
2019-04-28T05:52:25.421Z,12.03
2019-04-28T05:54:57.649Z,12.13
2019-04-28T05:57:35.573Z,12.20
2019-04-28T06:00:11.265Z,11.70
2019-04-28T06:02:55.492Z,12.53
2019-04-28T06:05:20.008Z,12.57
2019-04-28T06:07:52.259Z,12.27
2019-04-28T06:10:23.418Z,12.23
2019-04-28T06:12:54.166Z,12.53
2019-04-28T06:15:26.308Z,12.40
2019-04-28T06:17:56.899Z,12.30
2019-04-28T06:20:27.610Z,12.73
2019-04-28T06:22:58.333Z,12.37
2019-04-28T06:25:29.234Z,12.80
2019-04-28T06:27:59.968Z,12.00
2019-04-28T06:30:30.669Z,12.90
2019-04-28T06:33:08.206Z,12.07
2019-04-28T06:35:34.165Z,12.77
2019-04-28T06:38:04.799Z,12.00
2019-04-28T06:40:35.454Z,13.23
2019-04-28T06:43:06.045Z,13.90
2019-04-28T06:45:36.747Z,13.50
2019-04-28T06:48:07.490Z,13.53
2019-04-28T06:50:38.229Z,13.80
2019-04-28T06:53:09.445Z,14.47
2019-04-28T06:55:40.098Z,14.13
2019-04-28T06:58:10.684Z,15.10
2019-04-28T07:00:41.477Z,14.40
2019-04-28T07:03:22.706Z,14.97
2019-04-28T07:05:44.896Z,16.70
2019-04-28T07:08:15.705Z,18.27
2019-04-28T07:10:46.375Z,18.10
2019-04-28T07:13:17.092Z,17.90
2019-04-28T07:15:47.693Z,17.27
2019-04-28T07:18:18.596Z,16.10
2019-04-28T07:21:00.400Z,16.80
2019-04-28T07:23:32.166Z,15.87
2019-04-28T07:26:02.816Z,18.03
2019-04-28T07:28:33.909Z,16.57
2019-04-28T07:31:04.724Z,17.33
2019-04-28T07:33:36.357Z,16.93
2019-04-28T07:36:07.190Z,16.30
2019-04-28T07:38:37.924Z,15.97
2019-04-28T07:41:08.599Z,14.93
2019-04-28T07:43:39.298Z,15.40
2019-04-28T07:46:10.015Z,14.27
2019-04-28T07:48:40.683Z,13.17
2019-04-28T07:51:11.392Z,12.43
2019-04-28T07:53:46.861Z,12.03
2019-04-28T07:56:19.083Z,9.53
2019-04-28T07:58:49.713Z,9.10
2019-04-28T08:01:25.784Z,9.57
2019-04-28T08:03:57.620Z,7.60
2019-04-28T08:06:28.612Z,6.67
2019-04-28T08:09:02.297Z,6.17
2019-04-28T08:11:33.288Z,7.00
2019-04-28T08:14:04.229Z,8.50
2019-04-28T08:16:36.143Z,7.07
2019-04-28T08:19:06.661Z,6.83
2019-04-28T08:21:37.375Z,6.77
2019-04-28T08:24:07.954Z,7.47
2019-04-28T08:26:38.669Z,6.30
2019-04-28T08:29:09.262Z,6.47
2019-04-28T08:31:47.621Z,6.60
2019-04-28T08:34:21.005Z,6.67
2019-04-28T08:36:51.752Z,5.67
2019-04-28T08:39:25.072Z,5.37
2019-04-28T08:41:54.836Z,5.87
2019-04-28T08:44:25.443Z,5.50
2019-04-28T08:46:57.012Z,5.67
2019-04-28T08:49:35.161Z,5.13
2019-04-28T08:52:05.857Z,5.07
2019-04-28T08:54:36.466Z,4.80
2019-04-28T08:57:10.161Z,4.83
2019-04-28T08:59:40.822Z,4.83
2019-04-28T09:02:11.664Z,5.03
2019-04-28T09:04:42.274Z,5.50
2019-04-28T09:07:13.047Z,5.10
2019-04-28T09:09:43.795Z,5.10
2019-04-28T09:12:14.491Z,4.67
2019-04-28T09:14:45.097Z,4.83
2019-04-28T09:17:15.785Z,4.50
2019-04-28T09:19:46.391Z,4.37
2019-04-28T09:22:18.202Z,4.63
2019-04-28T09:24:48.937Z,4.60
2019-04-28T09:27:19.616Z,4.07
2019-04-28T09:29:50.184Z,3.97
2019-04-28T09:32:20.904Z,3.87
2019-04-28T09:34:56.229Z,4.00
2019-04-28T09:37:28.507Z,4.17
2019-04-28T09:41:14.506Z,4.20
2019-04-28T09:43:05.526Z,4.40
2019-04-28T09:45:37.687Z,4.43
2019-04-28T09:48:08.413Z,4.60
2019-04-28T09:50:39.132Z,4.57
2019-04-28T09:53:09.870Z,4.80
2019-04-28T09:55:40.685Z,5.13
2019-04-28T09:58:13.298Z,4.73
2019-04-28T10:00:44.001Z,5.00
2019-04-28T10:03:14.762Z,5.20
2019-04-28T10:05:46.068Z,4.70
2019-04-28T10:08:16.738Z,4.30
2019-04-28T10:10:47.434Z,4.20
2019-04-28T10:13:17.998Z,4.57
2019-04-28T10:15:48.793Z,4.90
2019-04-28T10:18:19.448Z,4.83
2019-04-28T10:20:50.189Z,4.80
2019-04-28T10:23:21.010Z,4.60
2019-04-28T10:25:51.630Z,4.47
2019-04-28T10:28:22.285Z,4.50
2019-04-28T10:30:52.895Z,5.67
2019-04-28T10:33:23.672Z,5.00
2019-04-28T10:35:54.358Z,4.93
2019-04-28T10:38:25.059Z,5.33
2019-04-28T10:40:57.200Z,5.37
2019-04-28T10:43:27.917Z,5.47
2019-04-28T10:45:58.782Z,5.43
2019-04-28T10:48:29.423Z,5.30
2019-04-28T10:51:01.301Z,5.33
2019-04-28T10:53:32.010Z,5.63
2019-04-28T10:56:02.594Z,5.63
2019-04-28T10:58:33.258Z,5.97
2019-04-28T11:01:03.967Z,6.33
2019-04-28T11:03:34.798Z,6.10
2019-04-28T11:06:05.409Z,6.10
2019-04-28T11:08:43.336Z,6.10
2019-04-28T11:11:15.564Z,5.93
2019-04-28T11:13:46.230Z,6.27
2019-04-28T11:16:18.407Z,6.63
2019-04-28T11:18:48.973Z,5.47
2019-04-28T11:21:19.658Z,5.83
2019-04-28T11:23:51.772Z,5.80
2019-04-28T11:26:26.607Z,5.83
2019-04-28T11:28:57.593Z,5.97
2019-04-28T11:31:28.304Z,5.73
2019-04-28T11:34:06.937Z,5.50
2019-04-28T11:36:37.874Z,6.30
2019-04-28T11:39:10.043Z,6.13
2019-04-28T11:41:40.711Z,6.50
2019-04-28T11:44:11.619Z,6.97
2019-04-28T11:46:42.266Z,6.90
2019-04-28T11:49:13.292Z,6.60
2019-04-28T11:51:43.936Z,5.80
2019-04-28T11:54:14.554Z,6.50
2019-04-28T11:56:45.166Z,6.73
2019-04-28T11:59:16.237Z,6.17
2019-04-28T12:01:47.092Z,6.70
2019-04-28T12:04:19.016Z,6.40
2019-04-28T12:06:50.654Z,6.47
2019-04-28T12:09:22.978Z,8.93
2019-04-28T12:11:55.350Z,6.67
2019-04-28T12:14:30.347Z,7.67
2019-04-28T12:17:02.575Z,5.97
2019-04-28T12:19:44.231Z,6.57
2019-04-28T12:22:15.024Z,5.73
2019-04-28T12:24:45.630Z,6.43
2019-04-28T12:27:16.354Z,5.93
2019-04-28T12:29:47.044Z,5.77
2019-04-28T12:32:17.702Z,5.37
2019-04-28T12:34:48.475Z,5.43
2019-04-28T12:37:19.137Z,4.70
2019-04-28T12:39:51.248Z,4.77
2019-04-28T12:42:21.858Z,5.83
2019-04-28T12:44:52.464Z,5.60
2019-04-28T12:47:23.112Z,5.07
2019-04-28T12:49:55.527Z,6.33
2019-04-28T12:52:26.200Z,5.50
2019-04-28T12:54:56.894Z,4.77
2019-04-28T12:57:27.526Z,12.70
2019-04-28T12:59:59.699Z,13.03
2019-04-28T13:02:31.878Z,13.70
2019-04-28T13:05:06.759Z,14.83
2019-04-28T13:07:38.809Z,12.30
2019-04-28T13:10:10.389Z,14.50
2019-04-28T13:12:41.210Z,24.43
2019-04-28T13:15:11.931Z,13.33
2019-04-28T13:17:44.131Z,14.67
2019-04-28T13:20:14.934Z,14.97
2019-04-28T13:22:45.517Z,22.13
2019-04-28T13:25:16.242Z,16.67
2019-04-28T13:27:47.104Z,14.57
2019-04-28T13:30:19.657Z,14.30
2019-04-28T13:32:50.344Z,13.10
2019-04-28T13:35:20.967Z,11.67
2019-04-28T13:37:51.635Z,11.67
2019-04-28T13:40:26.662Z,13.17
2019-04-28T13:42:57.281Z,14.43
2019-04-28T13:45:29.627Z,12.50
2019-04-28T13:48:00.268Z,13.27
2019-04-28T13:50:32.583Z,13.67
2019-04-28T13:53:03.229Z,45.10
2019-04-28T13:55:38.482Z,14.93
2019-04-28T13:58:10.233Z,15.70
2019-04-28T14:00:57.661Z,17.93
2019-04-28T14:03:29.924Z,14.33
2019-04-28T14:06:05.282Z,13.97
2019-04-28T14:08:36.190Z,13.90
2019-04-28T14:11:06.795Z,13.53
2019-04-28T14:13:37.515Z,13.23
2019-04-28T14:16:08.173Z,13.90
2019-04-28T14:18:38.918Z,13.10
2019-04-28T14:21:09.511Z,12.27
2019-04-28T14:23:40.212Z,13.07
2019-04-28T14:26:11.042Z,13.73
2019-04-28T14:28:41.755Z,12.47
2019-04-28T14:31:12.595Z,13.97
2019-04-28T14:33:43.427Z,13.53
2019-04-28T14:36:17.025Z,13.67
2019-04-28T14:38:47.763Z,13.80
2019-04-28T14:41:18.576Z,13.57
2019-04-28T14:43:49.216Z,14.43
2019-04-28T14:46:19.812Z,14.80
2019-04-28T14:48:50.569Z,14.47
2019-04-28T14:51:21.338Z,17.43
2019-04-28T14:53:51.995Z,15.97
2019-04-28T14:56:22.761Z,19.93
2019-04-28T14:58:53.508Z,16.17
2019-04-28T15:01:37.903Z,16.23
2019-04-28T15:04:20.862Z,16.77
2019-04-28T15:07:09.412Z,15.80
2019-04-28T15:09:59.859Z,18.97
2019-04-28T15:12:30.594Z,17.30
2019-04-28T15:15:01.372Z,15.97
2019-04-28T15:17:32.033Z,17.03
2019-04-28T15:20:02.831Z,16.20
2019-04-28T15:22:33.710Z,16.13
2019-04-28T15:25:05.214Z,17.37
2019-04-28T15:27:35.800Z,17.90
2019-04-28T15:30:08.407Z,16.17
2019-04-28T15:32:41.790Z,17.77
2019-04-28T15:35:13.965Z,16.97
2019-04-28T15:37:44.958Z,16.57
2019-04-28T15:40:16.656Z,16.20
2019-04-28T15:42:47.405Z,16.20
2019-04-28T15:45:18.344Z,17.40
2019-04-28T15:47:48.999Z,17.73
2019-04-28T15:50:19.653Z,17.97
2019-04-28T15:52:50.402Z,17.43
2019-04-28T15:55:22.617Z,16.97
2019-04-28T15:57:53.389Z,17.10
2019-04-28T16:00:24.025Z,17.47
2019-04-28T16:02:55.008Z,18.93
2019-04-28T16:05:25.669Z,17.27
2019-04-28T16:07:56.301Z,16.43
2019-04-28T16:10:27.202Z,16.73
2019-04-28T16:12:57.948Z,17.80
2019-04-28T16:15:28.578Z,17.90
2019-04-28T16:17:59.678Z,16.93
2019-04-28T16:20:30.289Z,18.17
2019-04-28T16:23:01.127Z,18.13
2019-04-28T16:25:31.973Z,18.03
2019-04-28T16:28:02.704Z,17.73
2019-04-28T16:30:33.460Z,17.47
2019-04-28T16:33:04.375Z,18.97
2019-04-28T16:35:36.760Z,18.80
2019-04-28T16:38:07.469Z,18.87
2019-04-28T16:40:46.165Z,17.97
2019-04-28T16:43:27.127Z,18.27
2019-04-28T16:45:57.806Z,16.37
2019-04-28T16:48:29.127Z,16.43
2019-04-28T16:51:01.483Z,18.23
2019-04-28T16:53:32.235Z,17.93
2019-04-28T16:56:08.446Z,18.37
2019-04-28T16:58:57.980Z,18.20
2019-04-28T17:01:36.185Z,17.70
2019-04-28T17:04:06.970Z,16.97
2019-04-28T17:06:37.570Z,16.77
2019-04-28T17:09:08.381Z,16.73
2019-04-28T17:11:39.124Z,15.57
2019-04-28T17:14:09.769Z,16.13
2019-04-28T17:16:40.438Z,15.53
2019-04-28T17:19:12.319Z,14.87
2019-04-28T17:21:44.112Z,15.07
2019-04-28T17:24:14.789Z,16.60
2019-04-28T17:26:46.317Z,15.87
2019-04-28T17:29:19.661Z,16.10
2019-04-28T17:31:50.398Z,17.33
2019-04-28T17:34:21.051Z,17.93
2019-04-28T17:36:51.680Z,17.53
2019-04-28T17:39:24.074Z,16.37
2019-04-28T17:41:54.795Z,16.53
2019-04-28T17:44:28.435Z,16.93
2019-04-28T17:47:02.449Z,16.53
2019-04-28T17:49:37.460Z,16.37
2019-04-28T17:52:09.318Z,16.83
2019-04-28T17:54:40.315Z,17.10
2019-04-28T17:57:11.174Z,15.43
2019-04-28T17:59:47.076Z,16.63
2019-04-28T18:02:23.615Z,15.77
2019-04-28T18:04:59.010Z,13.87
2019-04-28T18:07:31.523Z,15.47
2019-04-28T18:10:02.252Z,15.00
2019-04-28T18:12:32.973Z,14.83
2019-04-28T18:15:06.574Z,16.07
2019-04-28T18:17:41.904Z,15.40
2019-04-28T18:20:12.911Z,15.33
2019-04-28T18:22:43.635Z,14.23
2019-04-28T18:25:15.717Z,14.40
2019-04-28T18:27:47.740Z,14.77
2019-04-28T18:30:20.645Z,13.67
2019-04-28T18:33:01.665Z,14.20
2019-04-28T18:35:33.881Z,13.33
2019-04-28T18:38:08.758Z,13.83
2019-04-28T18:40:41.044Z,13.60
2019-04-28T18:43:19.542Z,13.20
2019-04-28T18:45:50.412Z,14.27
2019-04-28T18:48:22.760Z,14.67
2019-04-28T18:50:53.630Z,14.20
2019-04-28T18:53:24.387Z,14.23
2019-04-28T18:55:54.973Z,17.00
2019-04-28T18:58:25.558Z,13.40
2019-04-28T19:01:03.805Z,12.90
2019-04-28T19:03:34.486Z,12.87
2019-04-28T19:06:06.746Z,12.60
2019-04-28T19:08:48.866Z,12.10
2019-04-28T19:11:15.508Z,12.20
2019-04-28T19:13:50.743Z,11.50
2019-04-28T19:16:32.118Z,11.83
2019-04-28T19:19:07.499Z,14.67
2019-04-28T19:21:38.637Z,13.97
2019-04-28T19:24:09.488Z,12.07
2019-04-28T19:26:40.396Z,12.07
2019-04-28T19:29:11.149Z,10.63
2019-04-28T19:31:43.471Z,10.00
2019-04-28T19:34:14.201Z,9.67
2019-04-28T19:36:44.813Z,9.90
2019-04-28T19:39:15.433Z,10.13
2019-04-28T19:41:46.169Z,10.20
2019-04-28T19:44:16.964Z,10.50
2019-04-28T19:46:47.916Z,10.20
2019-04-28T19:49:18.789Z,10.20
2019-04-28T19:51:49.465Z,9.57
2019-04-28T19:54:21.716Z,10.37
2019-04-28T19:57:00.011Z,10.10
2019-04-28T19:59:38.539Z,9.80
2019-04-28T20:02:09.221Z,10.90
2019-04-28T20:04:39.988Z,10.77
2019-04-28T20:07:10.740Z,11.40
2019-04-28T20:09:41.400Z,11.20
2019-04-28T20:12:12.121Z,10.70
2019-04-28T20:14:42.806Z,11.10
2019-04-28T20:17:13.436Z,11.47
2019-04-28T20:19:44.213Z,10.77
2019-04-28T20:22:14.917Z,11.60
2019-04-28T20:24:47.224Z,10.83
2019-04-28T20:27:17.978Z,10.77
2019-04-28T20:29:48.611Z,10.80
2019-04-28T20:32:19.303Z,9.27
2019-04-28T20:34:50.010Z,9.57
2019-04-28T20:37:22.275Z,9.60
2019-04-28T20:40:06.647Z,10.23
2019-04-28T20:42:54.388Z,9.07
2019-04-28T20:45:27.664Z,9.20
2019-04-28T20:47:58.321Z,9.60
2019-04-28T20:50:29.123Z,9.73
2019-04-28T20:52:59.919Z,9.70
2019-04-28T20:55:32.293Z,9.53
2019-04-28T20:58:02.894Z,8.97
2019-04-28T21:00:33.721Z,9.30
2019-04-28T21:03:04.663Z,9.00
2019-04-28T21:05:35.252Z,9.47
2019-04-28T21:08:05.859Z,9.57
2019-04-28T21:10:38.083Z,9.60
2019-04-28T21:13:09.069Z,8.87
2019-04-28T21:15:39.985Z,9.40
2019-04-28T21:18:10.747Z,9.20
2019-04-28T21:20:41.514Z,8.70
2019-04-28T21:23:12.252Z,9.10
2019-04-28T21:25:42.992Z,9.10
2019-04-28T21:28:13.745Z,8.20
2019-04-28T21:30:44.475Z,8.57
2019-04-28T21:33:15.090Z,9.10
2019-04-28T21:35:46.195Z,8.73
2019-04-28T21:38:16.840Z,8.43
2019-04-28T21:40:47.493Z,11.77
2019-04-28T21:43:22.540Z,9.20
2019-04-28T21:46:00.942Z,9.00
2019-04-28T21:48:33.133Z,9.03
2019-04-28T21:51:03.972Z,9.20
2019-04-28T21:53:34.878Z,8.60
2019-04-28T21:56:05.813Z,8.77
2019-04-28T21:58:36.449Z,8.87
2019-04-28T22:01:08.788Z,8.90
2019-04-28T22:03:39.482Z,8.47
2019-04-28T22:06:11.848Z,8.20
2019-04-28T22:08:42.798Z,8.60
2019-04-28T22:11:13.374Z,8.50
2019-04-28T22:13:44.185Z,9.03
2019-04-28T22:16:14.881Z,8.90
2019-04-28T22:18:45.605Z,8.53
2019-04-28T22:21:16.366Z,9.00
2019-04-28T22:23:48.678Z,9.07
2019-04-28T22:26:20.813Z,9.40
2019-04-28T22:28:51.499Z,8.50
2019-04-28T22:31:22.126Z,8.10
2019-04-28T22:33:52.872Z,9.33
2019-04-28T22:36:23.471Z,8.43
2019-04-28T22:38:54.067Z,9.07
2019-04-28T22:41:24.868Z,9.17
2019-04-28T22:43:56.330Z,9.13
2019-04-28T22:46:27.152Z,8.60
2019-04-28T22:48:59.331Z,8.33
2019-04-28T22:51:30.049Z,8.40
2019-04-28T22:54:03.593Z,8.37
2019-04-28T22:56:35.860Z,8.07
2019-04-28T22:59:08.273Z,7.60
2019-04-28T23:01:40.632Z,7.97
2019-04-28T23:04:15.795Z,8.80
2019-04-28T23:06:46.531Z,8.33
2019-04-28T23:09:18.897Z,7.30
2019-04-28T23:11:49.511Z,7.73
2019-04-28T23:14:20.230Z,8.67
2019-04-28T23:16:51.024Z,8.17
2019-04-28T23:19:23.176Z,7.77
2019-04-28T23:22:14.282Z,8.17
2019-04-28T23:24:44.921Z,8.03
2019-04-28T23:27:15.485Z,7.87
2019-04-28T23:29:46.171Z,7.97
2019-04-28T23:32:16.879Z,7.17
2019-04-28T23:34:47.471Z,7.30
2019-04-28T23:37:18.196Z,7.83
2019-04-28T23:39:48.804Z,7.90
2019-04-28T23:42:25.661Z,8.50
2019-04-28T23:44:56.501Z,6.80
2019-04-28T23:47:27.279Z,7.03
2019-04-28T23:49:57.972Z,7.20
2019-04-28T23:52:30.136Z,6.87
2019-04-28T23:55:02.355Z,7.07
2019-04-28T23:57:33.552Z,7.17
